Time;durP1;ratioP1;P1;durP2;ratioP2;P2;SDS_P1;SDS_P2;PMS_P1;PMS_P2;Temp;Humidity;BMP_temperature;BMP_pressure;BME280_temperature;BME280_humidity;BME280_pressure;Samples;Min_cycle;Max_cycle;Signal;HPM_P1;HPM_P2
2021/12/22 00:01:36;;;;;;;0.20;0.20;;;;;;;19.54;38.58;102200.28;5128020;27;20054;-45
2021/12/22 00:04:02;;;;;;;0.20;0.20;;;;;;;19.54;38.36;102193.94;5128614;27;20107;-43
2021/12/22 00:06:32;;;;;;;0.10;0.10;;;;;;;19.53;38.71;102193.09;5126697;27;20035;-42
2021/12/22 00:08:58;;;;;;;0.20;0.20;;;;;;;19.53;38.54;102192.28;5109263;28;20043;-44
2021/12/22 00:11:24;;;;;;;0.20;0.20;;;;;;;19.54;38.33;102199.47;5127277;27;20043;-45
2021/12/22 00:13:50;;;;;;;0.20;0.20;;;;;;;19.53;38.54;102201.41;5107869;27;20085;-44
2021/12/22 00:16:16;;;;;;;0.20;0.20;;;;;;;19.53;38.49;102200.56;5109162;28;20201;-42
2021/12/22 00:18:42;;;;;;;0.20;0.20;;;;;;;19.52;38.67;102198.91;5108401;27;20132;-43
2021/12/22 00:21:10;;;;;;;0.20;0.20;;;;;;;19.53;38.55;102195.88;5129447;27;20153;-43
2021/12/22 00:23:36;;;;;;;0.20;0.20;;;;;;;19.52;38.70;102191.44;5106424;28;20040;-41
2021/12/22 00:26:02;;;;;;;0.20;0.20;;;;;;;19.52;38.42;102194.19;5125870;27;20043;-41
2021/12/22 00:28:28;;;;;;;0.20;0.20;;;;;;;19.51;38.48;102188.91;5126353;27;20405;-42
2021/12/22 00:30:53;;;;;;;0.20;0.20;;;;;;;19.51;38.45;102189.75;5126501;27;20553;-42
2021/12/22 00:33:19;;;;;;;0.20;0.20;;;;;;;19.52;38.35;102204.41;5125981;27;20047;-42
2021/12/22 00:35:45;;;;;;;0.20;0.20;;;;;;;19.51;38.60;102195.25;5108842;27;20047;-42
2021/12/22 00:38:14;;;;;;;0.20;0.20;;;;;;;19.52;38.36;102190.59;5107864;28;20409;-42
2021/12/22 00:40:39;;;;;;;;;;;;;;;19.49;38.68;102180.88;5131173;27;20039;-42
2021/12/22 00:43:05;;;;;;;0.20;0.20;;;;;;;19.50;38.21;102182.56;5108664;27;19934;-43
2021/12/22 00:45:34;;;;;;;0.20;0.20;;;;;;;19.50;38.40;102181.72;5125252;27;20039;-42
2021/12/22 00:48:00;;;;;;;0.20;0.20;;;;;;;19.51;38.68;102186.16;5108594;28;20035;-40
2021/12/22 00:50:25;;;;;;;0.20;0.20;;;;;;;19.50;38.68;102176.19;5108152;28;20474;-42
2021/12/22 00:52:51;;;;;;;0.20;0.20;;;;;;;19.50;38.47;102176.19;5120268;27;20080;-40
2021/12/22 00:55:19;;;;;;;0.20;0.20;;;;;;;19.49;38.77;102177.28;5109946;27;20053;-42
2021/12/22 00:57:47;;;;;;;0.20;0.20;;;;;;;19.49;38.73;102175.34;5108233;28;20073;-43
2021/12/22 01:00:13;;;;;;;0.15;0.15;;;;;;;19.50;38.57;102174.25;5125791;27;20401;-40
2021/12/22 01:02:39;;;;;;;0.20;0.20;;;;;;;19.49;38.44;102167.06;5123634;27;20224;-42
2021/12/22 01:05:06;;;;;;;0.20;0.20;;;;;;;19.49;38.43;102167.06;5127419;27;20058;-43
2021/12/22 01:07:32;;;;;;;0.20;0.20;;;;;;;19.47;38.50;102174.78;5127034;27;20231;-44
2021/12/22 01:10:18;;;;;;;0.20;0.20;;;;;;;19.50;38.54;102178.94;5126299;27;20047;-42
2021/12/22 01:12:44;;;;;;;0.20;0.20;;;;;;;19.48;38.39;102176.44;5109032;28;20043;-43
2021/12/22 01:15:12;;;;;;;0.20;0.20;;;;;;;19.48;38.59;102183.91;5125915;27;20059;-43
2021/12/22 01:17:42;;;;;;;0.20;0.20;;;;;;;19.49;38.36;102177.28;5106252;28;20049;-40
2021/12/22 01:20:20;;;;;;;0.20;0.20;;;;;;;19.46;38.72;102177.78;5127337;27;20058;-44
2021/12/22 01:22:48;;;;;;;0.20;0.20;;;;;;;19.48;38.42;102184.75;5132187;27;20039;-42
2021/12/22 01:25:16;;;;;;;0.20;0.20;;;;;;;19.47;38.49;102183.06;5111119;27;20233;-44
2021/12/22 01:27:43;;;;;;;;;;;;;;;19.47;38.75;102193.25;5107623;28;20088;-42
2021/12/22 01:30:13;;;;;;;0.20;0.20;;;;;;;19.47;38.51;102193.25;5128081;27;19926;-43
2021/12/22 01:32:40;;;;;;;0.20;0.20;;;;;;;19.48;38.61;102203.25;5124661;27;20047;-43
2021/12/22 01:35:09;;;;;;;0.20;0.20;;;;;;;19.48;38.46;102197.72;5124405;27;20039;-44
2021/12/22 01:37:35;;;;;;;0.20;0.20;;;;;;;19.46;38.42;102208.19;5109568;27;20063;-43
2021/12/22 01:40:01;;;;;;;0.20;0.20;;;;;;;19.47;38.79;102209.84;5126647;27;20047;-42
2021/12/22 01:42:28;;;;;;;0.20;0.20;;;;;;;19.46;38.64;102208.19;5106763;27;20438;-43
2021/12/22 01:45:25;;;;;;;0.20;0.20;;;;;;;19.46;38.43;102206.25;5124390;27;20050;-41
2021/12/22 01:50:40;;;;;;;0.20;0.20;;;;;;;19.46;38.76;102206.25;5109590;27;20112;-43
2021/12/22 01:53:27;;;;;;;0.20;0.20;;;;;;;19.47;38.47;102209.84;5101865;27;20205;-42
2021/12/22 01:56:13;;;;;;;0.20;0.20;;;;;;;19.45;38.66;102210.09;5125979;27;20043;-42
2021/12/22 01:58:42;;;;;;;0.20;0.20;;;;;;;19.45;38.47;102200.97;5107634;28;20044;-42
2021/12/22 02:01:08;;;;;;;0.20;0.20;;;;;;;19.44;38.65;102200.16;5124632;27;20050;-43
2021/12/22 02:03:34;;;;;;;0.20;0.20;;;;;;;19.44;38.47;102200.16;5107032;27;20047;-45
2021/12/22 02:06:02;;;;;;;0.20;0.20;;;;;;;19.46;38.47;102202.66;5109741;27;20131;-42
2021/12/22 02:08:27;;;;;;;0.20;0.20;;;;;;;19.44;38.51;102204.84;5128829;27;20041;-42
2021/12/22 02:10:53;;;;;;;0.20;0.20;;;;;;;19.45;38.50;102201.81;5126725;27;20043;-40
2021/12/22 02:13:25;;;;;;;0.20;0.20;;;;;;;19.43;38.58;102195.72;5127318;27;20137;-43
2021/12/22 02:15:50;;;;;;;0.20;0.20;;;;;;;19.44;38.43;102191.84;5128520;27;20080;-43
2021/12/22 02:18:19;;;;;;;0.20;0.20;;;;;;;19.44;38.75;102194.63;5128802;27;20039;-42
2021/12/22 02:20:46;;;;;;;0.20;0.20;;;;;;;19.43;38.79;102190.19;5129535;27;20050;-40
2021/12/22 02:23:12;;;;;;;0.20;0.20;;;;;;;19.44;38.74;102199.31;5123911;27;20046;-42
2021/12/22 02:25:46;;;;;;;0.20;0.20;;;;;;;19.42;38.49;102193.19;5131932;27;20137;-43
2021/12/22 02:28:18;;;;;;;0.20;0.20;;;;;;;19.43;38.65;102190.19;5126752;27;20427;-41
2021/12/22 02:30:44;;;;;;;0.20;0.20;;;;;;;19.42;38.56;102190.44;5127114;27;20046;-42
2021/12/22 02:33:43;;;;;;;0.20;0.20;;;;;;;19.43;38.66;102195.72;5108554;27;20199;-41
2021/12/22 02:38:43;;;;;;;0.20;0.20;;;;;;;19.42;38.77;102182.97;5162665;27;20226;-30
2021/12/22 02:41:12;;;;;;;0.20;0.20;;;;;;;19.43;38.46;102175.50;5138727;27;20061;-31
2021/12/22 02:43:45;;;;;;;0.20;0.20;;;;;;;19.43;38.61;102175.50;5118300;27;20065;-30
2021/12/22 02:46:12;;;;;;;0.20;0.20;;;;;;;19.41;38.55;102175.78;5138668;27;20040;-31
2021/12/22 02:48:39;;;;;;;0.20;0.20;;;;;;;19.42;38.60;102166.41;5136012;27;20047;-32
2021/12/22 02:51:05;;;;;;;0.20;0.20;;;;;;;19.41;38.78;102175.78;5139859;27;20135;-30
2021/12/22 02:53:40;;;;;;;0.20;0.20;;;;;;;19.43;38.87;102170.00;5115237;27;20049;-30
2021/12/22 02:56:25;;;;;;;0.20;0.20;;;;;;;19.42;38.60;102177.44;5140393;27;20038;-30
2021/12/22 03:04:13;;;;;;;0.20;0.20;;;;;;;19.41;38.70;102178.53;5159879;27;20476;-31
2021/12/22 03:06:47;;;;;;;0.20;0.20;;;;;;;19.41;38.68;102178.53;5131122;27;20038;-31
2021/12/22 03:09:22;;;;;;;0.20;0.20;;;;;;;19.41;38.87;102175.78;5134019;27;20051;-31
2021/12/22 03:11:49;;;;;;;0.20;0.20;;;;;;;19.40;38.77;102174.13;5128898;27;20284;-31
2021/12/22 03:14:15;;;;;;;0.20;0.20;;;;;;;19.41;38.86;102170.25;5145710;27;20061;-30
2021/12/22 03:16:44;;;;;;;0.20;0.20;;;;;;;19.42;38.49;102171.91;5130873;27;20043;-30
2021/12/22 03:19:11;;;;;;;0.20;0.20;;;;;;;19.39;38.81;102169.69;5143979;27;20043;-30
2021/12/22 03:21:38;;;;;;;0.20;0.20;;;;;;;19.41;38.86;102166.66;5130489;27;20043;-31
2021/12/22 03:24:04;;;;;;;0.20;0.20;;;;;;;19.40;38.89;102174.13;5143405;27;20231;-31
2021/12/22 03:26:30;;;;;;;0.20;0.20;;;;;;;19.40;38.58;102165.81;5144799;27;20089;-30
2021/12/22 03:28:56;;;;;;;0.20;0.20;;;;;;;19.41;38.53;102159.19;5148579;27;20050;-30
2021/12/22 03:31:22;;;;;;;0.20;0.20;;;;;;;19.40;38.83;102156.69;5145371;27;20049;-31
2021/12/22 03:33:47;;;;;;;0.20;0.20;;;;;;;19.39;38.62;102164.16;5149702;27;20307;-33
2021/12/22 03:36:13;;;;;;;0.20;0.20;;;;;;;19.39;38.54;102153.09;5147716;27;20098;-32
2021/12/22 03:38:39;;;;;;;0.20;0.20;;;;;;;19.39;38.58;102158.63;5150214;27;20046;-30
2021/12/22 03:41:07;;;;;;;0.20;0.20;;;;;;;19.40;38.57;102157.53;5129679;27;20124;-32
2021/12/22 03:43:34;;;;;;;0.20;0.20;;;;;;;19.38;38.61;102156.94;5127014;27;20053;-30
2021/12/22 03:45:59;;;;;;;0.20;0.20;;;;;;;19.39;38.52;102155.03;5128977;27;20478;-30
2021/12/22 03:48:26;;;;;;;0.20;0.20;;;;;;;19.38;38.72;102158.88;5144778;27;20182;-32
2021/12/22 03:50:52;;;;;;;0.20;0.20;;;;;;;19.39;38.84;102158.63;5129134;27;20485;-31
2021/12/22 03:53:18;;;;;;;0.20;0.20;;;;;;;19.40;38.58;102165.00;5142169;27;20057;-31
2021/12/22 03:55:44;;;;;;;0.20;0.20;;;;;;;19.38;38.55;102156.94;5115778;27;20130;-32
2021/12/22 03:58:10;;;;;;;0.20;0.20;;;;;;;19.38;38.79;102156.09;5147258;27;20086;-33
2021/12/22 04:00:38;;;;;;;0.20;0.20;;;;;;;19.38;38.85;102156.94;5110625;27;20044;-30
2021/12/22 04:03:04;;;;;;;0.20;0.20;;;;;;;19.38;38.70;102162.47;5131565;27;20102;-31
2021/12/22 04:05:30;;;;;;;0.20;0.20;;;;;;;19.39;38.75;102163.31;5141518;27;20076;-32
2021/12/22 04:07:56;;;;;;;0.20;0.20;;;;;;;19.40;38.59;102165.00;5141444;27;20038;-31
2021/12/22 04:10:23;;;;;;;0.20;0.20;;;;;;;19.38;38.72;102173.50;5143052;27;20053;-33
2021/12/22 04:12:51;;;;;;;0.20;0.20;;;;;;;19.38;38.84;102176.28;5142437;27;20101;-31
2021/12/22 04:15:18;;;;;;;0.20;0.20;;;;;;;19.37;38.67;102177.38;5113002;27;20047;-31
2021/12/22 04:17:44;;;;;;;0.20;0.20;;;;;;;19.38;38.76;102180.97;5109838;27;20096;-31
2021/12/22 04:20:10;;;;;;;0.20;0.20;;;;;;;19.37;38.66;102182.06;5098238;27;20047;-35
2021/12/22 04:22:36;;;;;;;0.20;0.20;;;;;;;19.38;38.62;102176.28;5120711;27;20217;-31
2021/12/22 04:25:04;;;;;;;0.20;0.20;;;;;;;19.37;38.79;102171.00;5122698;27;20051;-32
2021/12/22 04:27:30;;;;;;;0.20;0.20;;;;;;;19.36;38.90;102175.72;5103620;27;20058;-32
2021/12/22 04:29:56;;;;;;;0.20;0.20;;;;;;;19.37;38.86;102182.91;5123595;27;20039;-31
2021/12/22 04:32:22;;;;;;;0.20;0.20;;;;;;;19.37;38.61;102182.06;5123293;27;20055;-32
2021/12/22 04:34:48;;;;;;;0.20;0.20;;;;;;;19.37;38.53;102187.59;5126926;27;20047;-32
2021/12/22 04:37:13;;;;;;;0.20;0.20;;;;;;;19.36;38.90;102189.50;5119911;27;20133;-33
2021/12/22 04:39:39;;;;;;;0.20;0.20;;;;;;;19.37;38.56;102193.94;5105181;28;20074;-31
2021/12/22 04:42:05;;;;;;;0.20;0.20;;;;;;;19.36;38.74;102189.50;5132287;27;20106;-33
2021/12/22 04:44:31;;;;;;;0.20;0.20;;;;;;;19.36;38.58;102194.22;5128303;27;20105;-32
2021/12/22 04:46:58;;;;;;;0.20;0.20;;;;;;;19.36;38.74;102189.50;5124548;27;20067;-32
2021/12/22 04:49:26;;;;;;;0.20;0.20;;;;;;;19.37;38.57;102184.81;5121825;27;20749;-31
2021/12/22 04:51:54;;;;;;;0.20;0.20;;;;;;;19.36;38.86;102195.03;5125392;27;20043;-31
2021/12/22 04:54:33;;;;;;;0.20;0.20;;;;;;;19.38;38.57;102186.50;5116970;27;20047;-33
2021/12/22 04:56:58;;;;;;;0.20;0.20;;;;;;;19.36;38.92;102177.63;5111681;27;20047;-33
2021/12/22 04:59:25;;;;;;;0.20;0.20;;;;;;;19.36;38.63;102174.88;5129166;27;20493;-31
2021/12/22 05:01:51;;;;;;;0.20;0.20;;;;;;;19.36;38.75;102174.88;5108791;27;20079;-32
2021/12/22 05:04:17;;;;;;;0.20;0.20;;;;;;;19.36;38.56;102172.09;5107966;27;20043;-31
2021/12/22 05:06:43;;;;;;;0.20;0.20;;;;;;;19.36;38.62;102166.59;5125913;27;20039;-30
2021/12/22 05:09:08;;;;;;;0.20;0.20;;;;;;;19.35;38.53;102163.00;5109472;27;20062;-31
2021/12/22 05:11:35;;;;;;;0.20;0.20;;;;;;;19.35;38.68;102162.16;5122047;27;20047;-30
2021/12/22 05:14:03;;;;;;;0.20;0.20;;;;;;;19.35;38.93;102167.69;5124454;27;20050;-31
2021/12/22 05:16:29;;;;;;;0.20;0.20;;;;;;;19.34;38.70;102161.28;5109788;27;20039;-32
2021/12/22 05:18:59;;;;;;;0.20;0.20;;;;;;;19.36;38.70;102164.66;5127145;27;20701;-33
2021/12/22 05:21:26;;;;;;;0.20;0.20;;;;;;;19.35;38.82;102156.63;5104882;28;20102;-32
2021/12/22 05:23:54;;;;;;;0.20;0.20;;;;;;;19.35;38.91;102159.41;5102420;27;20040;-32
2021/12/22 05:26:20;;;;;;;0.20;0.20;;;;;;;19.35;38.57;102159.41;5125375;27;20047;-31
2021/12/22 05:28:46;;;;;;;0.20;0.20;;;;;;;19.34;38.57;102163.22;5110875;27;20051;-34
2021/12/22 05:31:12;;;;;;;0.20;0.20;;;;;;;19.33;38.89;102159.63;5101448;28;20039;-33
2021/12/22 05:33:38;;;;;;;0.20;0.20;;;;;;;19.33;38.87;102156.88;5127926;27;20043;-30
2021/12/22 05:36:04;;;;;;;0.20;0.20;;;;;;;19.34;38.64;102164.06;5117417;27;20043;-33
2021/12/22 05:38:30;;;;;;;0.20;0.20;;;;;;;19.34;38.82;102161.28;5127055;27;20086;-32
2021/12/22 05:40:55;;;;;;;0.20;0.20;;;;;;;19.34;38.80;102163.22;5123850;27;20477;-31
2021/12/22 05:43:21;;;;;;;0.20;0.20;;;;;;;19.33;38.71;102156.88;5124561;27;20054;-31
2021/12/22 05:45:47;;;;;;;0.20;0.20;;;;;;;19.34;38.66;102157.69;5121323;27;20240;-31
2021/12/22 05:48:13;;;;;;;0.20;0.20;;;;;;;19.35;38.80;102156.63;5128050;27;20060;-31
2021/12/22 05:50:43;;;;;;;0.20;0.20;;;;;;;19.33;38.72;102153.28;5085712;27;20092;-33
2021/12/22 05:53:09;;;;;;;0.20;0.20;;;;;;;19.33;38.84;102153.28;5101957;27;20747;-30
2021/12/22 05:55:34;;;;;;;0.20;0.20;;;;;;;19.33;38.82;102162.38;5122515;27;20126;-30
2021/12/22 05:58:00;;;;;;;0.20;0.20;;;;;;;19.31;38.70;102150.78;5126209;27;20055;-31
2021/12/22 06:00:26;;;;;;;0.20;0.20;;;;;;;19.34;38.80;102149.41;5128451;27;20485;-31
2021/12/22 06:02:52;;;;;;;0.20;0.20;;;;;;;19.33;38.74;102150.50;5127186;27;20130;-30
2021/12/22 06:05:19;;;;;;;0.20;0.20;;;;;;;19.33;38.88;102147.75;5119254;27;20402;-32
2021/12/22 06:07:45;;;;;;;0.20;0.20;;;;;;;19.32;38.76;102154.38;5112061;27;20401;-30
2021/12/22 06:10:11;;;;;;;0.20;0.20;;;;;;;19.32;38.92;102151.59;5122365;27;20398;-31
2021/12/22 06:12:36;;;;;;;0.20;0.20;;;;;;;19.33;38.57;102147.75;5108255;27;20046;-31
2021/12/22 06:15:02;;;;;;;0.20;0.20;;;;;;;19.32;38.88;102144.16;5120618;27;20469;-31
2021/12/22 06:17:28;;;;;;;0.20;0.20;;;;;;;19.31;38.69;102148.00;5124459;27;20083;-31
2021/12/22 06:19:54;;;;;;;0.20;0.20;;;;;;;19.32;38.60;102141.38;5127288;27;20047;-31
2021/12/22 06:22:19;;;;;;;0.20;0.20;;;;;;;19.31;38.76;102139.72;5119486;27;20431;-31
2021/12/22 06:24:45;;;;;;;0.20;0.20;;;;;;;19.32;38.64;102140.56;5105565;27;20035;-31
2021/12/22 06:27:11;;;;;;;0.20;0.20;;;;;;;19.32;38.69;102140.56;5103437;28;20466;-30
2021/12/22 06:29:36;;;;;;;0.20;0.20;;;;;;;19.30;38.73;102130.59;5120838;27;20088;-32
2021/12/22 06:32:03;;;;;;;0.20;0.20;;;;;;;19.32;38.77;102137.78;5115756;27;20043;-32
2021/12/22 06:34:28;;;;;;;0.20;0.20;;;;;;;19.32;38.60;102127.56;5129600;27;20695;-31
2021/12/22 06:36:54;;;;;;;0.20;0.20;;;;;;;19.25;37.76;102137.94;5118488;27;20555;-31
2021/12/22 06:39:20;;;;;;;0.30;0.30;;;;;;;19.33;38.30;102128.41;5123017;27;20402;-33
2021/12/22 06:41:46;;;;;;;0.20;0.20;;;;;;;19.37;38.13;102129.56;5116509;27;20043;-40
2021/12/22 06:44:13;;;;;;;0.20;0.20;;;;;;;19.34;38.46;102133.66;5102335;27;20395;-42
2021/12/22 06:46:41;;;;;;;0.20;0.20;;;;;;;19.35;38.54;102134.53;5123015;27;20043;-42
2021/12/22 06:49:09;;;;;;;0.20;0.20;;;;;;;19.34;38.26;102135.59;5095627;27;20051;-40
2021/12/22 06:51:35;;;;;;;0.20;0.20;;;;;;;19.34;38.55;102130.91;5092499;27;20405;-40
2021/12/22 06:54:00;;;;;;;0.20;0.20;;;;;;;19.37;38.00;102140.63;5107765;27;20055;-46
2021/12/22 06:56:26;;;;;;;0.22;0.22;;;;;;;19.44;38.61;102136.59;5110775;27;20434;-43
2021/12/22 06:58:52;;;;;;;0.20;0.20;;;;;;;19.44;38.73;102133.00;5113754;27;20059;-43
2021/12/22 07:01:20;;;;;;;0.20;0.20;;;;;;;19.44;38.83;102127.47;5112956;27;20103;-42
2021/12/22 07:03:47;;;;;;;0.20;0.20;;;;;;;19.44;38.84;102130.25;5109377;27;20253;-43
2021/12/22 07:06:13;;;;;;;0.20;0.20;;;;;;;19.43;38.61;102137.69;5112416;27;20483;-40
2021/12/22 07:08:39;;;;;;;0.20;0.20;;;;;;;19.44;38.58;102131.09;5115175;27;20120;-39
2021/12/22 07:11:04;;;;;;;0.20;0.20;;;;;;;19.42;38.56;102127.72;5069644;27;20086;-46
2021/12/22 07:13:31;;;;;;;0.20;0.20;;;;;;;19.43;38.51;102128.56;5109869;27;20451;-41
2021/12/22 07:15:56;;;;;;;0.20;0.20;;;;;;;19.43;38.71;102134.94;5111066;27;20054;-40
2021/12/22 07:18:23;;;;;;;0.20;0.20;;;;;;;19.43;38.81;102136.84;5104763;27;20150;-41
2021/12/22 07:20:48;;;;;;;0.20;0.20;;;;;;;19.43;38.75;102129.41;5102790;27;20047;-43
2021/12/22 07:23:14;;;;;;;0.20;0.20;;;;;;;19.43;38.67;102134.06;5100888;27;20054;-40
2021/12/22 07:25:40;;;;;;;0.20;0.20;;;;;;;19.45;38.42;102137.44;5085795;27;20573;-41
2021/12/22 07:28:08;;;;;;;0.20;0.20;;;;;;;19.45;38.77;102137.44;5105761;27;20062;-39
2021/12/22 07:30:34;;;;;;;0.20;0.20;;;;;;;19.44;38.84;102130.25;5085840;27;20114;-42
2021/12/22 07:33:00;;;;;;;0.20;0.20;;;;;;;19.45;37.61;102134.69;5109061;27;20386;-42
2021/12/22 07:35:37;;;;;;;0.20;0.20;;;;;;;19.49;37.89;102128.38;5103659;27;20138;-42
2021/12/22 07:38:28;;;;;;;0.20;0.20;;;;;;;19.50;37.98;102135.56;5079112;27;20044;-42
2021/12/22 07:40:56;;;;;;;0.20;0.20;;;;;;;19.51;38.13;102133.66;5091280;27;20180;-41
2021/12/22 07:43:22;;;;;;;0.20;0.20;;;;;;;19.51;38.23;102133.66;5074313;27;20054;-43
2021/12/22 07:45:49;;;;;;;0.20;0.20;;;;;;;19.52;38.04;102130.66;5103476;27;20046;-42
2021/12/22 07:48:15;;;;;;;0.20;0.20;;;;;;;19.53;38.05;102134.25;5108622;27;20736;-43
2021/12/22 07:50:40;;;;;;;0.20;0.20;;;;;;;19.53;37.98;102132.31;5080393;28;20047;-44
2021/12/22 07:53:06;;;;;;;0.20;0.20;;;;;;;19.55;38.20;102140.34;5089485;27;21154;-42
2021/12/22 07:55:32;;;;;;;0.20;0.20;;;;;;;19.58;38.01;102139.00;5091216;27;20039;-45
2021/12/22 07:57:58;;;;;;;0.20;0.20;;;;;;;19.58;38.22;102139.84;5111943;27;20039;-43
2021/12/22 08:00:24;;;;;;;0.20;0.20;;;;;;;19.61;38.27;102144.91;5107181;27;20501;-45
2021/12/22 08:02:49;;;;;;;0.20;0.20;;;;;;;19.63;37.25;102136.34;5097117;27;20039;-42
2021/12/22 08:05:35;;;;;;;0.20;0.20;;;;;;;19.67;37.81;102134.75;5084585;27;20044;-42
2021/12/22 08:08:00;;;;;;;0.20;0.20;;;;;;;19.68;37.79;102147.47;5100826;27;20054;-39
2021/12/22 08:10:26;;;;;;;0.20;0.20;;;;;;;19.67;37.76;102143.03;5097713;27;20601;-44
2021/12/22 08:12:52;;;;;;;0.20;0.20;;;;;;;19.68;38.21;102153.00;5090137;27;20044;-44
2021/12/22 08:15:17;;;;;;;0.20;0.20;;;;;;;19.69;37.90;102140.84;5101564;27;20288;-42
2021/12/22 08:17:43;;;;;;;0.20;0.20;;;;;;;19.69;38.06;102141.69;5106061;27;20513;-43
2021/12/22 08:20:10;;;;;;;0.20;0.20;;;;;;;19.74;36.64;102144.53;5106049;27;20047;-40
2021/12/22 08:22:35;;;;;;;0.20;0.20;;;;;;;19.79;34.67;102135.47;5110712;27;20052;-38
2021/12/22 08:25:02;;;;;;;0.20;0.20;;;;;;;19.84;34.83;102131.94;5103559;27;20052;-37
2021/12/22 08:27:28;;;;;;;0.20;0.20;;;;;;;19.92;36.45;102137.84;5079052;27;20112;-34
2021/12/22 08:29:53;;;;;;;0.20;0.20;;;;;;;19.93;36.42;102133.16;5107021;27;20043;-35
2021/12/22 08:32:19;;;;;;;0.20;0.20;;;;;;;19.91;36.45;102135.38;5108011;27;20047;-34
2021/12/22 08:34:47;;;;;;;0.20;0.20;;;;;;;19.90;36.56;102141.97;5108354;27;20137;-34
2021/12/22 08:39:59;;;;;;;0.20;0.20;;;;;;;19.89;36.78;102137.53;5093014;27;21181;-34
2021/12/22 08:42:25;;;;;;;0.20;0.20;;;;;;;19.90;36.77;102136.44;5094387;27;20055;-33
2021/12/22 08:44:52;;;;;;;0.20;0.20;;;;;;;19.90;37.08;102128.97;5089834;27;20036;-35
2021/12/22 08:47:18;;;;;;;0.20;0.20;;;;;;;19.90;36.85;102131.72;5089722;28;20095;-34
2021/12/22 08:49:45;;;;;;;0.20;0.20;;;;;;;19.91;36.71;102129.84;5105045;27;20645;-39
2021/12/22 08:52:11;;;;;;;0.20;0.20;;;;;;;19.91;36.86;102129.84;5085693;27;20288;-36
2021/12/22 08:54:36;;;;;;;0.20;0.20;;;;;;;19.91;36.94;102133.44;5085397;27;20521;-34
2021/12/22 08:57:03;;;;;;;0.20;0.20;;;;;;;19.92;37.32;102132.34;5085884;27;20138;-34
2021/12/22 08:59:28;;;;;;;0.20;0.20;;;;;;;19.92;36.86;102125.97;5087843;27;20044;-34
2021/12/22 09:01:54;;;;;;;0.20;0.20;;;;;;;19.94;36.93;102129.28;5108425;27;20097;-33
2021/12/22 09:04:21;;;;;;;0.20;0.20;;;;;;;19.94;37.07;102129.28;5087561;27;20483;-34
2021/12/22 09:06:48;;;;;;;0.20;0.20;;;;;;;19.94;37.01;102124.59;5091784;27;20046;-34
2021/12/22 09:09:14;;;;;;;0.20;0.20;;;;;;;19.95;36.94;102131.00;5102226;27;20043;-38
2021/12/22 09:11:40;;;;;;;0.20;0.20;;;;;;;19.95;37.23;102129.06;5081517;27;20040;-34
2021/12/22 09:14:06;;;;;;;0.20;0.20;;;;;;;19.95;37.19;102131.81;5087474;27;20410;-35
2021/12/22 09:16:34;;;;;;;0.20;0.20;;;;;;;19.96;37.29;102135.41;5088038;27;20071;-34
2021/12/22 09:19:00;;;;;;;;;;;;;;;19.97;35.00;102137.09;5108708;27;20048;-34
2021/12/22 09:21:25;;;;;;;0.20;0.20;;;;;;;20.04;36.02;102144.09;5109675;27;19976;-34
2021/12/22 09:23:51;;;;;;;0.20;0.20;;;;;;;20.05;36.24;102131.09;5110125;27;20088;-37
2021/12/22 09:26:17;;;;;;;0.20;0.20;;;;;;;20.03;36.25;102139.69;5096400;27;20537;-34
2021/12/22 09:28:43;;;;;;;0.20;0.20;;;;;;;20.03;36.41;102136.91;5086040;27;20042;-35
2021/12/22 09:31:09;;;;;;;0.20;0.20;;;;;;;20.04;36.59;102129.44;5093854;28;21168;-36
2021/12/22 09:33:37;;;;;;;0.20;0.20;;;;;;;20.04;36.75;102135.81;5108593;27;20413;-36
2021/12/22 09:36:05;;;;;;;0.10;0.10;;;;;;;20.04;36.42;102135.81;5074220;27;20042;-41
2021/12/22 09:38:30;;;;;;;0.15;0.15;;;;;;;20.05;36.89;102133.88;5106138;27;20207;-36
2021/12/22 09:40:58;;;;;;;0.20;0.20;;;;;;;20.05;36.71;102126.41;5108908;27;20174;-33
2021/12/22 09:43:24;;;;;;;0.20;0.20;;;;;;;20.06;36.52;102118.94;5084850;27;20251;-33
2021/12/22 09:45:56;;;;;;;0.20;0.20;;;;;;;20.07;36.71;102114.25;5103277;27;20046;-34
2021/12/22 09:48:31;;;;;;;0.20;0.20;;;;;;;20.08;36.83;102115.91;5105539;27;20054;-34
2021/12/22 09:53:43;;;;;;;0.20;0.20;;;;;;;20.11;35.71;102102.41;5142674;27;20136;-42
2021/12/22 09:56:10;;;;;;;0.20;0.20;;;;;;;20.14;35.65;102101.06;5104826;27;20072;-43
2021/12/22 09:58:39;;;;;;;0.20;0.20;;;;;;;20.09;35.15;102109.31;5144516;27;20043;-34
2021/12/22 10:01:05;;;;;;;0.20;0.20;;;;;;;20.14;35.59;102101.06;5124127;27;20042;-34
2021/12/22 10:03:31;;;;;;;0.20;0.20;;;;;;;20.15;35.44;102099.97;5143115;27;20058;-34
2021/12/22 10:05:57;;;;;;;0.20;0.20;;;;;;;20.15;35.21;102103.56;5135999;27;20050;-34
2021/12/22 10:08:24;;;;;;;0.20;0.20;;;;;;;20.16;35.56;102101.63;5144929;27;20131;-33
2021/12/22 10:10:59;;;;;;;0.20;0.20;;;;;;;20.20;35.18;102098.09;5136040;27;20039;-35
2021/12/22 10:13:26;;;;;;;0.20;0.20;;;;;;;20.20;35.09;102091.72;5119426;27;20061;-34
2021/12/22 10:15:52;;;;;;;0.20;0.20;;;;;;;20.23;35.13;102100.34;5134279;27;20061;-33
2021/12/22 10:18:21;;;;;;;0.20;0.20;;;;;;;20.22;35.53;102090.38;5121992;27;20157;-34
2021/12/22 10:20:50;;;;;;;0.20;0.20;;;;;;;20.21;35.52;102091.47;5114184;27;20039;-33
2021/12/22 10:23:31;;;;;;;0.10;0.10;;;;;;;20.21;35.55;102091.47;5120950;27;20057;-34
2021/12/22 10:25:59;;;;;;;0.10;0.10;;;;;;;20.22;35.84;102095.06;5115637;27;20038;-34
2021/12/22 10:28:26;;;;;;;0.20;0.20;;;;;;;20.23;35.64;102088.44;5121379;27;20055;-33
2021/12/22 10:30:55;;;;;;;0.20;0.20;;;;;;;20.23;35.64;102094.81;5144933;27;20067;-34
2021/12/22 10:33:25;;;;;;;0.20;0.20;;;;;;;20.23;35.93;102089.28;5116826;27;20095;-34
2021/12/22 10:35:58;;;;;;;0.20;0.20;;;;;;;20.24;36.13;102090.94;5134081;27;20615;-36
2021/12/22 10:38:27;;;;;;;0.10;0.10;;;;;;;20.25;36.16;102098.16;5134242;27;20141;-34
2021/12/22 10:41:00;;;;;;;0.20;0.20;;;;;;;20.24;36.26;102093.69;5120864;27;20050;-34
2021/12/22 10:43:28;;;;;;;0.10;0.10;;;;;;;20.25;36.16;102092.63;5141706;27;20047;-35
2021/12/22 10:45:57;;;;;;;0.20;0.20;;;;;;;20.26;36.05;102087.94;5141314;27;20456;-35
2021/12/22 10:51:19;;;;;;;0.20;0.20;;;;;;;20.16;32.76;102077.56;5097498;27;20090;-34
2021/12/22 10:53:49;;;;;;;0.20;0.20;;;;;;;20.32;35.00;102069.44;5116763;27;20056;-33
2021/12/22 10:56:26;;;;;;;0.20;0.20;;;;;;;20.35;35.02;102071.69;5119428;27;20108;-35
2021/12/22 10:59:00;;;;;;;0.10;0.10;;;;;;;20.34;35.46;102054.28;5125576;27;20386;-34
2021/12/22 11:01:26;;;;;;;0.20;0.20;;;;;;;20.34;35.73;102068.09;5122143;27;20782;-34
2021/12/22 11:04:01;;;;;;;0.10;0.10;;;;;;;20.34;35.70;102056.22;5136433;27;20047;-34
2021/12/22 11:06:29;;;;;;;0.17;0.17;;;;;;;20.34;35.90;102065.34;5121648;27;20055;-34
2021/12/22 11:09:04;;;;;;;0.10;0.10;;;;;;;20.35;35.90;102066.16;5109864;27;20406;-35
2021/12/22 11:11:33;;;;;;;0.20;0.20;;;;;;;20.34;35.83;102065.34;5090478;27;20070;-34
2021/12/22 11:14:03;;;;;;;0.20;0.20;;;;;;;20.35;35.95;102063.41;5092699;27;20043;-33
2021/12/22 11:16:28;;;;;;;0.20;0.20;;;;;;;20.34;35.95;102062.56;5123378;27;20096;-34
2021/12/22 11:18:54;;;;;;;0.20;0.20;;;;;;;20.34;36.09;102054.28;5131878;27;20461;-34
2021/12/22 11:21:27;;;;;;;0.20;0.20;;;;;;;20.35;36.00;102050.41;5128130;27;20049;-34
2021/12/22 11:23:53;;;;;;;0.20;0.20;;;;;;;20.35;35.95;102041.28;5127889;27;20456;-31
2021/12/22 11:26:19;;;;;;;0.20;0.20;;;;;;;20.35;36.19;102049.56;5131077;27;20039;-32
2021/12/22 11:28:45;;;;;;;0.20;0.20;;;;;;;20.36;35.98;102043.75;5129741;27;20504;-31
2021/12/22 11:31:10;;;;;;;0.20;0.20;;;;;;;20.37;36.01;102045.44;5130042;27;20143;-31
2021/12/22 11:33:44;;;;;;;0.20;0.20;;;;;;;20.36;36.01;102029.94;5104708;27;20038;-38
2021/12/22 11:36:12;;;;;;;0.20;0.20;;;;;;;20.37;35.97;102019.69;5110784;27;20055;-42
2021/12/22 11:38:38;;;;;;;0.10;0.10;;;;;;;20.38;36.00;102015.81;5111161;27;20107;-43
2021/12/22 11:41:11;;;;;;;0.20;0.20;;;;;;;20.38;36.18;102018.59;5129772;27;20047;-40
2021/12/22 11:43:38;;;;;;;0.20;0.20;;;;;;;20.37;35.91;102012.22;5127254;27;20067;-40
2021/12/22 11:46:04;;;;;;;0.20;0.20;;;;;;;20.37;35.88;102012.22;5119544;27;20064;-43
2021/12/22 11:48:31;;;;;;;0.20;0.20;;;;;;;20.37;36.09;102012.22;5124344;27;20520;-44